El Paso, TX (88550)

11:45 PM MST on January 30, 2015 (GMT -0700)
Vista del Sol | Change Station
CLOSE
Current Station
Personal Weather Station
Location: El Paso, TX
Elevation: 4010 ft
Nearby Weather Stations

Elev 4010 ft 31.76 °N, 106.34 °W | Updated 3 minutes ago

Rain
Rain
43.7 °F
Feels Like 44 °F
N
1.0
Wind Variable Wind from NE
Gusts 8.0 mph

Today
High -- | Low -- °F
--% Chance of Precip.
Yesterday
High -- | Low -- °F
Precip. -- in
7:00 AM 5:38 PM
Waxing Gibbous, 88% visible
Pressure 30.01 in
Visibility 10.0 miles
Clouds Few 700 ft
Mostly Cloudy 1300 ft
Overcast 6000 ft
Windchill 44 °F
Dew Point 42 °F
Humidity 92%
Rainfall 0.30 in
Snow Depth Not available.
UV 0 out of 12
Pollen .20 out of 12
Air Quality Not available.
Flu Activity Not available.
SPECI KELP 310614Z 07003KT 10SM -RA FEW007 BKN013 OVC060 06/04 A3001 RMK AO2 MTNS PTLY OBSCD SW-NW P0001 T00610044

More Conditions Fewer Conditions

Pressure 30.01 in
Visibility 10.0 miles
Clouds Few 700 ft
Mostly Cloudy 1300 ft
Overcast 6000 ft
Windchill 44 °F
Dew Point 42 °F
Humidity 92%
Rainfall 0.30 in
Snow Depth Not available.
UV 0 out of 12
Pollen .20 out of 12
Air Quality Not available.
Flu Activity Not available.
SPECI KELP 310614Z 07003KT 10SM -RA FEW007 BKN013 OVC060 06/04 A3001 RMK AO2 MTNS PTLY OBSCD SW-NW P0001 T00610044

More Conditions Fewer Conditions

Nowcast | as of 10:07 PM MST on January 30, 2015

Widespread light to moderate rain showers will continue to move across southern New Mexico and far West Texas from the south- southwest during the overnight hours. Rainfall rates will generally be a tenth of an inch per hour with a few locations experiencing a quarter of an inch per hour. Overnight totals will range from a quarter of an inch to more than a half inch. There will also be fog at times in a few spots with visibilities briefly dropping to 1/4 mile.

×

10-Day Weather Forecast

Almanac

Astronomy

Jan. 30, 2015 Rise Set
Actual Time
Civil Twilight
Nautical Twilight
Astronomical Twilight
Moon
Length of Visible Light
Length of Day
Tomorrow will be .
, % of the Moon is Illuminated

Today's Extremes

State Highs State Lows

Community

WunderPhotos

Upload Photos

1,792,013 photos uploaded!

WunderBlogs® & News

Nearby

Air Quality

  Air Quality AQ Index Pollutant
Not available.

Snow Depth

Station Depth Elevation

Earthquake Activity

City Distance Mag. Time & Date
Minimum magnitude displayed is 2.5.

Coastal Water Temperatures

Place Temperature

Nearby Weather Stations